Back to Top

Language: 

My Weather Underground Personal Weather Station Historical Data with Graphs...

Delerius Weather Station Historical Data
Daily Summary for March 6, 2017 Units:  Metric    English   Both
« Previous Day
Next Day »
Daily Weekly Monthly Yearly Custom
  High: Low: Average:
Temperature: 11.1 °C 3.9 °C 6.8 °C
Dew Point: 5.5 °C 1.4 °C 3.5 °C
Humidity: 95 % 56 % 81 %
Wind Speed: 20.9 km/h 0 km/h 11.4 km/h
Wind Gust: 32.2 km/h - -
Wind:- - WNW
Pressure: 1011.7 hPa 996.8 hPa -
Precipitation: 0.25 mm    
Historical Graphs
 
 
Tabular Data for March 6, 2017
Time Temperature Dew Point Pressure Wind Wind Speed Wind Gust Humidity Rainfall Rate (Hourly) solar Conditions
00:00 4.9 °C 4.2 °C 996.8 hPa NW 6.4 km/h 25.7 km/h 95 % 0 mm 0 W/m2
00:05 4.9 °C 4.2 °C 996.8 hPa NW 6.4 km/h 25.7 km/h 95 % 0 mm 0 W/m2
00:15 5.1 °C 4.3 °C 997.2 hPa North 6.4 km/h 8 km/h 95 % 0 mm 0 W/m2
00:25 5.1 °C 4.4 °C 997.2 hPa WNW 8 km/h 9.7 km/h 95 % 0 mm 0 W/m2
00:30 5.2 °C 4.4 °C 997.2 hPa NW 9.7 km/h 11.3 km/h 95 % 0 mm 0 W/m2
00:35 5.2 °C 4.5 °C 997.2 hPa NW 9.7 km/h 11.3 km/h 95 % 0 mm 0 W/m2
00:40 5.3 °C 4.4 °C 997.2 hPa NW 8 km/h 9.7 km/h 94 % 0 mm 0 W/m2
00:45 5.3 °C 4.4 °C 997.5 hPa NW 8 km/h 9.7 km/h 94 % 0 mm 0 W/m2
00:55 5.3 °C 4.4 °C 997.5 hPa NW 8 km/h 8 km/h 94 % 0 mm 0 W/m2
01:00 5.3 °C 4.4 °C 997.5 hPa NW 8 km/h 8 km/h 94 % 0 mm 0 W/m2
01:05 5.3 °C 4.4 °C 997.5 hPa West 8 km/h 12.9 km/h 94 % 0 mm 0 W/m2
01:10 5.3 °C 4.3 °C 997.5 hPa WNW 9.7 km/h 12.9 km/h 93 % 0 mm 0 W/m2
01:20 5.3 °C 4.1 °C 997.5 hPa WNW 11.3 km/h 17.7 km/h 92 % 0 mm 0 W/m2
01:30 5.3 °C 4 °C 997.5 hPa West 12.9 km/h 16.1 km/h 91 % 0 mm 0 W/m2
01:35 5.4 °C 4.1 °C 997.5 hPa WNW 12.9 km/h 16.1 km/h 91 % 0 mm 0 W/m2
01:40 5.4 °C 4.1 °C 997.5 hPa NNW 12.9 km/h 12.9 km/h 91 % 0 mm 0 W/m2
01:45 5.3 °C 4 °C 997.5 hPa WNW 11.3 km/h 12.9 km/h 91 % 0 mm 0 W/m2
01:50 5.3 °C 4 °C 997.5 hPa WNW 11.3 km/h 14.5 km/h 91 % 0 mm 0 W/m2
01:55 5.3 °C 4 °C 997.5 hPa WNW 11.3 km/h 14.5 km/h 91 % 0 mm 0 W/m2
02:05 5.3 °C 4 °C 997.5 hPa WNW 12.9 km/h 14.5 km/h 91 % 0 mm 0 W/m2
02:10 5.4 °C 4.1 °C 997.5 hPa NW 12.9 km/h 14.5 km/h 91 % 0 mm 0 W/m2
02:15 5.4 °C 4.1 °C 997.5 hPa WNW 11.3 km/h 14.5 km/h 91 % 0 mm 0 W/m2
02:20 5.5 °C 4.2 °C 997.5 hPa WNW 11.3 km/h 12.9 km/h 91 % 0 mm 0 W/m2
02:25 5.5 °C 4.2 °C 997.5 hPa NW 9.7 km/h 12.9 km/h 91 % 0 mm 0 W/m2
02:35 5.6 °C 4.2 °C 997.5 hPa NW 11.3 km/h 12.9 km/h 91 % 0 mm 0 W/m2
02:40 5.6 °C 4.2 °C 997.5 hPa WNW 11.3 km/h 19.3 km/h 91 % 0 mm 0 W/m2
02:45 5.5 °C 4.2 °C 997.5 hPa WNW 12.9 km/h 19.3 km/h 91 % 0 mm 0 W/m2
02:55 5.4 °C 4.1 °C 997.5 hPa NW 11.3 km/h 19.3 km/h 91 % 0 mm 0 W/m2
03:00 5.3 °C 4 °C 997.5 hPa West 12.9 km/h 12.9 km/h 91 % 0 mm 0 W/m2
03:10 5.2 °C 3.9 °C 997.5 hPa WNW 11.3 km/h 12.9 km/h 91 % 0 mm 0 W/m2
03:15 5.2 °C 3.8 °C 997.5 hPa WNW 11.3 km/h 12.9 km/h 91 % 0 mm 0 W/m2
03:20 5.1 °C 3.7 °C 997.5 hPa WNW 11.3 km/h 11.3 km/h 91 % 0 mm 0 W/m2
03:25 5 °C 3.7 °C 997.5 hPa WNW 11.3 km/h 16.1 km/h 91 % 0 mm 0 W/m2
03:30 4.9 °C 3.8 °C 997.9 hPa WNW 11.3 km/h 12.9 km/h 92 % 0 mm 0 W/m2
03:35 4.9 °C 3.8 °C 997.9 hPa NW 12.9 km/h 14.5 km/h 92 % 0 mm 0 W/m2
03:45 5.1 °C 4.1 °C 997.9 hPa WNW 12.9 km/h 17.7 km/h 93 % 0 mm 0 W/m2
03:50 5.2 °C 4.1 °C 997.9 hPa West 12.9 km/h 20.9 km/h 93 % 0 mm 0 W/m2
03:55 5.3 °C 4.1 °C 998.2 hPa WNW 12.9 km/h 20.9 km/h 92 % 0 mm 0 W/m2
04:00 5.3 °C 4.1 °C 998.2 hPa West 12.9 km/h 12.9 km/h 92 % 0 mm 0 W/m2
04:05 5.3 °C 4.1 °C 998.2 hPa West 12.9 km/h 12.9 km/h 92 % 0 mm 0 W/m2
04:15 5.4 °C 4.1 °C 998.2 hPa WNW 14.5 km/h 16.1 km/h 91 % 0 mm 0 W/m2
04:20 5.5 °C 4.2 °C 998.2 hPa WNW 17.7 km/h 17.7 km/h 91 % 0 mm 0 W/m2
04:30 5.5 °C 4.2 °C 998.2 hPa WNW 14.5 km/h 14.5 km/h 91 % 0 mm 0 W/m2
04:35 5.5 °C 4.3 °C 998.2 hPa WNW 14.5 km/h 14.5 km/h 92 % 0 mm 0 W/m2
04:40 5.4 °C 4.2 °C 998.2 hPa WNW 12.9 km/h 12.9 km/h 92 % 0 mm 0 W/m2
04:50 5.4 °C 4.2 °C 998.2 hPa WNW 11.3 km/h 14.5 km/h 92 % 0 mm 0 W/m2
04:55 5.4 °C 4.3 °C 998.2 hPa WNW 11.3 km/h 14.5 km/h 93 % 0 mm 0 W/m2
05:00 5.3 °C 4.3 °C 998.2 hPa West 11.3 km/h 11.3 km/h 93 % 0 mm 0 W/m2
05:05 5.3 °C 4.3 °C 998.2 hPa WNW 9.7 km/h 12.9 km/h 93 % 0 mm 0 W/m2
05:10 5.3 °C 4.2 °C 998.2 hPa WNW 8 km/h 12.9 km/h 93 % 0 mm 0 W/m2
05:15 5.2 °C 4.2 °C 998.2 hPa WNW 8 km/h 12.9 km/h 93 % 0 mm 0 W/m2
05:25 5.1 °C 4 °C 998.2 hPa WNW 8 km/h 12.9 km/h 93 % 0 mm 0 W/m2
05:30 5 °C 3.9 °C 998.2 hPa WNW 6.4 km/h 12.9 km/h 93 % 0 mm 0 W/m2
05:35 4.9 °C 3.8 °C 998.2 hPa WNW 6.4 km/h 12.9 km/h 93 % 0 mm 0 W/m2
05:40 4.8 °C 3.8 °C 998.5 hPa West 6.4 km/h 6.4 km/h 93 % 0 mm 0 W/m2
05:45 4.7 °C 3.7 °C 998.5 hPa West 4.8 km/h 12.9 km/h 93 % 0 mm 0 W/m2
05:55 4.5 °C 3.4 °C 998.5 hPa WNW 1.6 km/h 12.9 km/h 93 % 0 mm 0 W/m2
06:00 4.4 °C 3.6 °C 998.5 hPa WNW 1.6 km/h 12.9 km/h 94 % 0 mm 0 W/m2
06:10 4.3 °C 3.4 °C 998.5 hPa WNW 3.2 km/h 12.9 km/h 94 % 0 mm 0 W/m2
06:15 4.3 °C 3.4 °C 998.5 hPa WNW 4.8 km/h 12.9 km/h 94 % 0 mm 0 W/m2
06:20 4.3 °C 3.4 °C 998.5 hPa WNW 6.4 km/h 12.9 km/h 94 % 0 mm 0 W/m2
06:30 4.3 °C 3.4 °C 998.5 hPa WNW 8 km/h 12.9 km/h 94 % 0 mm 0 W/m2
06:35 4.2 °C 3.3 °C 998.5 hPa WNW 8 km/h 12.9 km/h 94 % 0 mm 0 W/m2
06:40 4.2 °C 3.3 °C 998.5 hPa WNW 8 km/h 8 km/h 94 % 0 mm 0 W/m2
06:45 4.2 °C 3.3 °C 998.9 hPa WNW 8 km/h 12.9 km/h 94 % 0 mm 5 W/m2
06:50 4.1 °C 3.2 °C 998.9 hPa WNW 8 km/h 8 km/h 94 % 0 mm 7 W/m2
06:55 4.1 °C 3.2 °C 998.9 hPa WNW 6.4 km/h 12.9 km/h 94 % 0 mm 9 W/m2
07:05 3.9 °C 3.1 °C 998.9 hPa West 3.2 km/h 12.9 km/h 94 % 0 mm 21 W/m2
07:10 3.9 °C 3 °C 998.9 hPa WNW 3.2 km/h 12.9 km/h 94 % 0 mm 18 W/m2
07:15 3.9 °C 3 °C 998.9 hPa West 4.8 km/h 12.9 km/h 94 % 0 mm 30 W/m2
07:20 4 °C 3.3 °C 998.9 hPa WNW 8 km/h 8 km/h 95 % 0 mm 72 W/m2
07:25 4.2 °C 3.4 °C 998.9 hPa NW 8 km/h 16.1 km/h 95 % 0 mm 84 W/m2
07:35 4.4 °C 3.6 °C 998.9 hPa WNW 9.7 km/h 16.1 km/h 94 % 0 mm 58 W/m2
07:45 4.6 °C 3.7 °C 999.2 hPa NW 8 km/h 14.5 km/h 94 % 0 mm 86 W/m2
07:50 4.7 °C 3.8 °C 999.2 hPa NW 9.7 km/h 12.9 km/h 94 % 0 mm 141 W/m2
07:55 4.8 °C 3.8 °C 999.2 hPa NW 11.3 km/h 12.9 km/h 93 % 0 mm 153 W/m2
08:00 5 °C 3.9 °C 999.2 hPa NNW 11.3 km/h 11.3 km/h 93 % 0 mm 165 W/m2
08:10 5.6 °C 4.5 °C 999.2 hPa NW 9.7 km/h 9.7 km/h 93 % 0 mm 186 W/m2
08:15 5.7 °C 4.5 °C 999.2 hPa NW 11.3 km/h 11.3 km/h 92 % 0 mm 199 W/m2
08:20 5.9 °C 4.7 °C 999.5 hPa NW 12.9 km/h 12.9 km/h 92 % 0 mm 209 W/m2
08:25 6.1 °C 4.7 °C 999.5 hPa NW 11.3 km/h 12.9 km/h 91 % 0 mm 220 W/m2
08:30 6.2 °C 4.7 °C 999.5 hPa NW 9.7 km/h 12.9 km/h 90 % 0 mm 232 W/m2
08:35 6.3 °C 4.8 °C 999.5 hPa NW 12.9 km/h 17.7 km/h 90 % 0 mm 246 W/m2
08:45 6.6 °C 4.9 °C 999.9 hPa WNW 14.5 km/h 14.5 km/h 89 % 0 mm 271 W/m2
08:50 6.7 °C 5.1 °C 999.9 hPa NW 12.9 km/h 12.9 km/h 89 % 0 mm 281 W/m2
09:00 7.1 °C 5.2 °C 999.9 hPa NW 12.9 km/h 12.9 km/h 88 % 0 mm 306 W/m2
09:05 7.2 °C 5.4 °C 1000.2 hPa WNW 12.9 km/h 20.9 km/h 88 % 0 mm 318 W/m2
09:10 7.3 °C 5.3 °C 1000.2 hPa WNW 16.1 km/h 20.9 km/h 87 % 0 mm 329 W/m2
09:20 7.3 °C 5.1 °C 1000.6 hPa WNW 17.7 km/h 20.9 km/h 86 % 0 mm 350 W/m2
09:25 7.5 °C 5.3 °C 1000.6 hPa West 14.5 km/h 20.9 km/h 86 % 0 mm 360 W/m2
09:30 7.7 °C 5.3 °C 1000.6 hPa WNW 14.5 km/h 14.5 km/h 85 % 0 mm 378 W/m2
09:35 7.8 °C 5.2 °C 1000.9 hPa WNW 14.5 km/h 17.7 km/h 84 % 0 mm 410 W/m2
09:40 8 °C 5.4 °C 1000.9 hPa West 16.1 km/h 16.1 km/h 84 % 0 mm 471 W/m2
09:50 8.2 °C 5.2 °C 1001.2 hPa WNW 14.5 km/h 16.1 km/h 81 % 0 mm 171 W/m2
09:55 8.2 °C 5.3 °C 1001.2 hPa NW 14.5 km/h 16.1 km/h 82 % 0 mm 469 W/m2
10:00 8.4 °C 5.5 °C 1001.2 hPa West 12.9 km/h 12.9 km/h 82 % 0 mm 487 W/m2
10:05 8.6 °C 5.3 °C 1001.2 hPa WNW 14.5 km/h 14.5 km/h 80 % 0 mm 483 W/m2
10:10 8.7 °C 5.3 °C 1001.2 hPa WNW 14.5 km/h 14.5 km/h 79 % 0 mm 162 W/m2
10:20 8.8 °C 5.2 °C 1001.6 hPa WNW 16.1 km/h 19.3 km/h 78 % 0 mm 490 W/m2
10:25 8.9 °C 5.1 °C 1001.6 hPa WNW 16.1 km/h 19.3 km/h 77 % 0 mm 408 W/m2
10:35 9.3 °C 5.4 °C 1001.6 hPa West 12.9 km/h 17.7 km/h 77 % 0 mm 508 W/m2
10:40 9.4 °C 5.2 °C 1001.6 hPa WNW 12.9 km/h 17.7 km/h 75 % 0 mm 571 W/m2
10:45 9.6 °C 5 °C 1001.6 hPa West 16.1 km/h 25.7 km/h 73 % 0 mm 580 W/m2
10:50 9.8 °C 5.2 °C 1001.6 hPa WNW 16.1 km/h 16.1 km/h 73 % 0 mm 552 W/m2
11:00 9.7 °C 4.7 °C 1001.9 hPa WNW 14.5 km/h 14.5 km/h 71 % 0 mm 197 W/m2
11:05 9.5 °C 4.5 °C 1001.9 hPa NW 14.5 km/h 14.5 km/h 71 % 0 mm 274 W/m2
11:10 9.4 °C 4.6 °C 1002.3 hPa WNW 14.5 km/h 17.7 km/h 72 % 0 mm 301 W/m2
11:15 9.4 °C 4.6 °C 1002.3 hPa NNW 16.1 km/h 17.7 km/h 72 % 0 mm 146 W/m2
11:20 9.3 °C 4.3 °C 1002.3 hPa WNW 16.1 km/h 16.1 km/h 71 % 0 mm 107 W/m2
11:30 9.2 °C 4.4 °C 1002.3 hPa NW 12.9 km/h 16.1 km/h 72 % 0 mm 584 W/m2
11:35 9.4 °C 4.7 °C 1002.3 hPa WNW 12.9 km/h 17.7 km/h 72 % 0 mm 606 W/m2
11:40 9.7 °C 4.7 °C 1002.3 hPa WNW 14.5 km/h 14.5 km/h 71 % 0 mm 211 W/m2
11:45 9.9 °C 4.9 °C 1002.3 hPa NW 14.5 km/h 22.5 km/h 71 % 0 mm 740 W/m2
11:55 9.8 °C 4.6 °C 1002.6 hPa West 14.5 km/h 16.1 km/h 70 % 0 mm 260 W/m2
12:00 9.8 °C 4.4 °C 1002.6 hPa WNW 12.9 km/h 17.7 km/h 69 % 0 mm 218 W/m2
12:10 9.7 °C 4.4 °C 1002.6 hPa WNW 14.5 km/h 14.5 km/h 70 % 0 mm 214 W/m2
12:15 9.6 °C 4.4 °C 1002.6 hPa NW 12.9 km/h 14.5 km/h 70 % 0 mm 251 W/m2
12:20 9.8 °C 4.2 °C 1002.6 hPa WNW 12.9 km/h 14.5 km/h 68 % 0 mm 323 W/m2
12:25 9.9 °C 4.1 °C 1002.9 hPa WNW 16.1 km/h 16.1 km/h 67 % 0 mm 251 W/m2
12:30 9.9 °C 3.9 °C 1002.9 hPa WNW 17.7 km/h 17.7 km/h 66 % 0 mm 213 W/m2
12:40 10.1 °C 4 °C 1002.9 hPa West 16.1 km/h 24.1 km/h 66 % 0 mm 213 W/m2
12:45 10.1 °C 4.1 °C 1002.9 hPa WNW 16.1 km/h 24.1 km/h 66 % 0 mm 599 W/m2
12:50 10.3 °C 4.3 °C 1002.9 hPa West 16.1 km/h 16.1 km/h 66 % 0 mm 606 W/m2
12:55 10.4 °C 4.2 °C 1003.3 hPa NW 17.7 km/h 19.3 km/h 65 % 0 mm 645 W/m2
13:00 10.7 °C 4.3 °C 1003.3 hPa WNW 19.3 km/h 25.7 km/h 65 % 0 mm 628 W/m2
13:10 10.9 °C 4.3 °C 1003.3 hPa WNW 16.1 km/h 16.1 km/h 64 % 0 mm 615 W/m2
13:15 10.9 °C 4.1 °C 1003.3 hPa West 17.7 km/h 17.7 km/h 63 % 0 mm 603 W/m2
13:25 11 °C 3.8 °C 1003.6 hPa NW 19.3 km/h 19.3 km/h 61 % 0 mm 647 W/m2
13:30 11.1 °C 3.3 °C 1003.6 hPa WNW 20.9 km/h 22.5 km/h 59 % 0 mm 306 W/m2
13:35 10.9 °C 3.7 °C 1003.6 hPa WNW 19.3 km/h 30.6 km/h 61 % 0 mm 172 W/m2
13:45 10.9 °C 3.7 °C 1003.6 hPa WNW 17.7 km/h 19.3 km/h 61 % 0 mm 582 W/m2
13:50 11 °C 3.5 °C 1003.9 hPa NW 16.1 km/h 19.3 km/h 60 % 0 mm 165 W/m2
13:55 10.6 °C 3.2 °C 1003.9 hPa NW 17.7 km/h 19.3 km/h 60 % 0 mm 156 W/m2
14:00 10.3 °C 3.1 °C 1003.9 hPa WNW 16.1 km/h 16.1 km/h 61 % 0 mm 142 W/m2
14:05 10.2 °C 3 °C 1003.9 hPa WNW 16.1 km/h 16.1 km/h 61 % 0 mm 156 W/m2
14:10 10 °C 3.1 °C 1003.9 hPa WNW 17.7 km/h 24.1 km/h 62 % 0 mm 216 W/m2
14:20 9.9 °C 3.2 °C 1003.9 hPa NW 16.1 km/h 16.1 km/h 63 % 0 mm 227 W/m2
14:25 10 °C 3.3 °C 1004.3 hPa WNW 16.1 km/h 19.3 km/h 63 % 0 mm 176 W/m2
14:30 10 °C 3.1 °C 1004.3 hPa WNW 14.5 km/h 17.7 km/h 62 % 0 mm 260 W/m2
14:40 9.8 °C 2.6 °C 1004.3 hPa WNW 17.7 km/h 17.7 km/h 61 % 0 mm 53 W/m2
14:45 9.6 °C 2.9 °C 1004.3 hPa WNW 16.1 km/h 17.7 km/h 63 % 0 mm 399 W/m2
14:55 10.1 °C 2.9 °C 1004.6 hPa WNW 16.1 km/h 16.1 km/h 61 % 0 mm 422 W/m2
15:00 10.2 °C 2.8 °C 1004.6 hPa NW 17.7 km/h 17.7 km/h 60 % 0 mm 142 W/m2
15:05 10.3 °C 2.8 °C 1004.6 hPa WNW 17.7 km/h 17.7 km/h 60 % 0 mm 142 W/m2
15:10 10.3 °C 3.1 °C 1004.6 hPa WNW 14.5 km/h 14.5 km/h 61 % 0 mm 399 W/m2
15:15 10.5 °C 3.1 °C 1004.6 hPa West 12.9 km/h 17.7 km/h 60 % 0 mm 359 W/m2
15:25 10.6 °C 2.9 °C 1004.6 hPa West 17.7 km/h 20.9 km/h 59 % 0 mm 322 W/m2
15:30 10.6 °C 2.6 °C 1005 hPa WNW 17.7 km/h 20.9 km/h 58 % 0 mm 311 W/m2
15:35 10.5 °C 2.1 °C 1005 hPa NW 19.3 km/h 20.9 km/h 56 % 0 mm 302 W/m2
15:40 10.5 °C 2.8 °C 1005 hPa WNW 17.7 km/h 32.2 km/h 59 % 0 mm 330 W/m2
15:45 10.6 °C 2.9 °C 1005 hPa NW 17.7 km/h 32.2 km/h 59 % 0 mm 336 W/m2
15:55 10.5 °C 2.3 °C 1005.3 hPa West 19.3 km/h 19.3 km/h 57 % 0 mm 292 W/m2
16:05 10.3 °C 2.4 °C 1005.3 hPa West 17.7 km/h 32.2 km/h 58 % 0 mm 250 W/m2
16:10 10.1 °C 2.7 °C 1005.3 hPa WNW 19.3 km/h 24.1 km/h 60 % 0 mm 214 W/m2
16:15 9.9 °C 2.8 °C 1005.3 hPa WNW 19.3 km/h 24.1 km/h 61 % 0 mm 204 W/m2
16:20 9.8 °C 2.9 °C 1005.6 hPa West 17.7 km/h 17.7 km/h 62 % 0 mm 216 W/m2
16:25 9.7 °C 2.8 °C 1005.6 hPa West 17.7 km/h 17.7 km/h 62 % 0 mm 199 W/m2
16:35 9.6 °C 2.9 °C 1005.6 hPa NW 14.5 km/h 17.7 km/h 63 % 0 mm 151 W/m2
16:40 9.5 °C 2.8 °C 1005.6 hPa West 14.5 km/h 14.5 km/h 63 % 0 mm 134 W/m2
16:45 9.4 °C 2.7 °C 1006 hPa WNW 16.1 km/h 16.1 km/h 63 % 0 mm 46 W/m2
16:50 9.3 °C 2.9 °C 1006 hPa WNW 14.5 km/h 14.5 km/h 64 % 0 mm 44 W/m2
16:55 9.2 °C 2.8 °C 1006.3 hPa NW 11.3 km/h 14.5 km/h 64 % 0 mm 42 W/m2
17:05 9 °C 3 °C 1006.3 hPa WNW 14.5 km/h 14.5 km/h 66 % 0 mm 56 W/m2
17:10 9 °C 3.2 °C 1006.3 hPa NW 11.3 km/h 11.3 km/h 67 % 0 mm 44 W/m2
17:15 8.9 °C 3.2 °C 1006.7 hPa WNW 8 km/h 12.9 km/h 67 % 0 mm 32 W/m2
17:20 8.9 °C 3.3 °C 1006.7 hPa WNW 6.4 km/h 12.9 km/h 68 % 0 mm 25 W/m2
17:25 8.7 °C 3.2 °C 1006.7 hPa West 6.4 km/h 12.9 km/h 68 % 0 mm 18 W/m2
17:30 8.6 °C 3.1 °C 1007 hPa NW 8 km/h 12.9 km/h 68 % 0 mm 11 W/m2
17:40 8.3 °C 2.9 °C 1007.3 hPa NW 3.2 km/h 3.2 km/h 69 % 0 mm 7 W/m2
17:45 8 °C 2.7 °C 1007.3 hPa NW 6.4 km/h 17.7 km/h 69 % 0 mm 5 W/m2
17:50 7.8 °C 2.5 °C 1007.3 hPa NW 9.7 km/h 12.9 km/h 69 % 0 mm 5 W/m2
18:00 7.6 °C 2.2 °C 1007.3 hPa WNW 9.7 km/h 9.7 km/h 69 % 0 mm 0 W/m2
18:05 7.4 °C 2.5 °C 1007.3 hPa WNW 6.4 km/h 12.9 km/h 71 % 0 mm 0 W/m2
18:15 7.2 °C 2.3 °C 1007.7 hPa Calm   12.9 km/h 71 % 0 mm 0 W/m2
18:20 7 °C 2.3 °C 1007.7 hPa Calm   12.9 km/h 72 % 0 mm 0 W/m2
18:25 6.8 °C 2.3 °C 1007.7 hPa Calm   12.9 km/h 73 % 0 mm 0 W/m2
18:30 6.6 °C 2.2 °C 1008 hPa WNW 4.8 km/h 12.9 km/h 74 % 0 mm 0 W/m2
18:35 6.4 °C 2.3 °C 1008 hPa WNW 8 km/h 12.9 km/h 75 % 0 mm 0 W/m2
18:45 6.2 °C 2.3 °C 1008 hPa WNW 9.7 km/h 14.5 km/h 76 % 0 mm 0 W/m2
18:50 6.2 °C 2.4 °C 1008 hPa WNW 9.7 km/h 19.3 km/h 77 % 0 mm 0 W/m2
18:55 6.1 °C 2.4 °C 1008 hPa West 11.3 km/h 19.3 km/h 77 % 0 mm 0 W/m2
19:00 6.1 °C 2.3 °C 1008 hPa WNW 11.3 km/h 12.9 km/h 77 % 0 mm 0 W/m2
19:05 6 °C 2.3 °C 1008.4 hPa WNW 9.7 km/h 12.9 km/h 77 % 0 mm 0 W/m2
19:10 5.9 °C 2.3 °C 1008.4 hPa NW 9.7 km/h 9.7 km/h 78 % 0 mm 0 W/m2
19:20 5.8 °C 2.2 °C 1008.4 hPa West 9.7 km/h 9.7 km/h 78 % 0 mm 0 W/m2
19:25 5.7 °C 2.2 °C 1008.4 hPa WNW 6.4 km/h 12.9 km/h 78 % 0 mm 0 W/m2
19:35 5.6 °C 2 °C 1008.7 hPa WNW 6.4 km/h 12.9 km/h 78 % 0 mm 0 W/m2
19:40 5.4 °C 1.9 °C 1008.7 hPa WNW 8 km/h 8 km/h 78 % 0 mm 0 W/m2
19:45 5.3 °C 1.8 °C 1008.7 hPa WNW 9.7 km/h 9.7 km/h 78 % 0 mm 0 W/m2
19:55 5.2 °C 1.9 °C 1008.7 hPa West 9.7 km/h 12.9 km/h 79 % 0 mm 0 W/m2
20:00 5.2 °C 1.9 °C 1008.7 hPa West 9.7 km/h 12.9 km/h 79 % 0 mm 0 W/m2
20:05 5.1 °C 1.8 °C 1008.7 hPa WNW 9.7 km/h 12.9 km/h 79 % 0 mm 0 W/m2
20:10 5 °C 1.8 °C 1009 hPa WNW 9.7 km/h 12.9 km/h 80 % 0 mm 0 W/m2
20:15 4.9 °C 1.8 °C 1009 hPa West 9.7 km/h 12.9 km/h 80 % 0 mm 0 W/m2
20:25 4.8 °C 1.7 °C 1009.4 hPa West 9.7 km/h 12.9 km/h 80 % 0 mm 0 W/m2
20:30 4.7 °C 1.7 °C 1009.4 hPa WNW 9.7 km/h 12.9 km/h 81 % 0 mm 0 W/m2
20:40 4.7 °C 1.7 °C 1009.4 hPa WNW 11.3 km/h 12.9 km/h 81 % 0 mm 0 W/m2
20:45 4.7 °C 1.7 °C 1009.4 hPa WNW 9.7 km/h 12.9 km/h 81 % 0 mm 0 W/m2
20:50 4.7 °C 1.7 °C 1009.4 hPa West 8 km/h 12.9 km/h 81 % 0 mm 0 W/m2
21:00 4.6 °C 1.6 °C 1009.7 hPa WNW 8 km/h 12.9 km/h 81 % 0 mm 0 W/m2
21:05 4.6 °C 1.6 °C 1009.7 hPa West 8 km/h 12.9 km/h 81 % 0 mm 0 W/m2
21:10 4.5 °C 1.5 °C 1009.7 hPa West 6.4 km/h 12.9 km/h 81 % 0 mm 0 W/m2
21:15 4.4 °C 1.6 °C 1009.7 hPa WNW 6.4 km/h 12.9 km/h 82 % 0 mm 0 W/m2
21:20 4.4 °C 1.6 °C 1009.7 hPa WNW 8 km/h 12.9 km/h 82 % 0 mm 0 W/m2
21:25 4.3 °C 1.6 °C 1010 hPa WNW 8 km/h 12.9 km/h 82 % 0 mm 0 W/m2
21:35 4.2 °C 1.6 °C 1010 hPa West 4.8 km/h 12.9 km/h 83 % 0 mm 0 W/m2
21:40 4.1 °C 1.4 °C 1010 hPa WNW 4.8 km/h 12.9 km/h 83 % 0 mm 0 W/m2
21:45 4 °C 1.6 °C 1010 hPa WNW 4.8 km/h 12.9 km/h 84 % 0 mm 0 W/m2
21:50 4 °C 1.6 °C 1010.4 hPa West 6.4 km/h 12.9 km/h 84 % 0 mm 0 W/m2
21:55 4.1 °C 1.7 °C 1010.4 hPa WNW 6.4 km/h 12.9 km/h 84 % 0 mm 0 W/m2
22:05 4.2 °C 1.9 °C 1010.4 hPa WNW 8 km/h 16.1 km/h 85 % 0 mm 0 W/m2
22:10 4.3 °C 2.2 °C 1010.4 hPa WNW 9.7 km/h 12.9 km/h 86 % 0 mm 0 W/m2
22:15 4.4 °C 2.3 °C 1010.4 hPa West 8 km/h 12.9 km/h 86 % 0 mm 0 W/m2
22:20 4.5 °C 2.3 °C 1010.7 hPa West 6.4 km/h 12.9 km/h 86 % 0 mm 0 W/m2
22:25 4.4 °C 2.4 °C 1010.7 hPa West 6.4 km/h 12.9 km/h 87 % 0 mm 0 W/m2
22:30 4.4 °C 2.4 °C 1010.7 hPa WNW 6.4 km/h 12.9 km/h 87 % 0 mm 0 W/m2
22:40 4.4 °C 2.6 °C 1010.7 hPa West 8 km/h 16.1 km/h 88 % 0 mm 0 W/m2
22:45 4.5 °C 2.7 °C 1010.7 hPa WNW 8 km/h 16.1 km/h 88 % 0 mm 0 W/m2
22:50 4.5 °C 2.7 °C 1011.1 hPa West 8 km/h 12.9 km/h 88 % 0 mm 0 W/m2
22:55 4.6 °C 2.7 °C 1010.7 hPa WNW 8 km/h 12.9 km/h 88 % 0 mm 0 W/m2
23:00 4.6 °C 2.7 °C 1011.1 hPa WNW 8 km/h 8 km/h 88 % 0 mm 0 W/m2
23:05 4.6 °C 2.8 °C 1011.1 hPa WNW 8 km/h 9.7 km/h 88 % 0 mm 0 W/m2
23:15 4.8 °C 3.2 °C 1011.1 hPa WNW 11.3 km/h 14.5 km/h 89 % 0 mm 0 W/m2
23:20 4.9 °C 3.3 °C 1011.1 hPa WNW 11.3 km/h 14.5 km/h 89 % 0 mm 0 W/m2
23:25 5.1 °C 3.4 °C 1011.1 hPa West 12.9 km/h 14.5 km/h 89 % 0 mm 0 W/m2
23:30 5.1 °C 3.4 °C 1011.1 hPa NW 14.5 km/h 17.7 km/h 89 % 0 mm 0 W/m2
23:40 5.1 °C 3.3 °C 1011.4 hPa WNW 16.1 km/h 16.1 km/h 88 % 0 mm 0 W/m2
23:50 5 °C 3.2 °C 1011.4 hPa NW 14.5 km/h 14.5 km/h 88 % 0 mm 0 W/m2
23:55 4.9 °C 3.1 °C 1011.7 hPa West 14.5 km/h 14.5 km/h 88 % 0 mm 0 W/m2
Delerius-Weather
Compliments of Weather Underground - 2 mb

Data updates at regular intervals.